createdAt,value
2019-06-27T00:01:01.345Z,95661.28
2019-06-27T00:03:27.753Z,95656.09
2019-06-27T00:05:54.186Z,95660.20
2019-06-27T00:08:20.484Z,95660.48
2019-06-27T00:10:48.038Z,95660.62
2019-06-27T00:13:13.153Z,95659.79
2019-06-27T00:15:39.529Z,95657.80
2019-06-27T00:18:05.895Z,95663.56
2019-06-27T00:20:32.249Z,95664.23
2019-06-27T00:22:58.579Z,95661.28
2019-06-27T00:25:24.936Z,95663.73
2019-06-27T00:27:51.340Z,95661.66
2019-06-27T00:30:17.693Z,95655.63
2019-06-27T00:32:44.111Z,95652.69
2019-06-27T00:35:10.483Z,95655.72
2019-06-27T00:37:36.893Z,95653.35
2019-06-27T00:40:03.252Z,95660.16
2019-06-27T00:42:29.598Z,95650.48
2019-06-27T00:44:55.979Z,95653.27
2019-06-27T00:47:22.339Z,95655.01
2019-06-27T00:49:48.687Z,95653.81
2019-06-27T00:52:15.106Z,95653.63
2019-06-27T00:54:41.448Z,95648.66
2019-06-27T00:57:13.991Z,95642.08
2019-06-27T00:59:34.209Z,95647.86
2019-06-27T01:02:00.556Z,95646.20
2019-06-27T01:04:26.879Z,95649.19
2019-06-27T01:06:53.386Z,95645.95
2019-06-27T01:09:19.841Z,95641.66
2019-06-27T01:11:46.229Z,95642.83
2019-06-27T01:14:12.625Z,95644.29
2019-06-27T01:16:38.999Z,95648.94
2019-06-27T01:19:05.344Z,95646.61
2019-06-27T01:21:31.744Z,95643.41
2019-06-27T01:23:58.065Z,95639.95
2019-06-27T01:26:24.431Z,95643.25
2019-06-27T01:28:50.835Z,95639.30
2019-06-27T01:31:17.137Z,95639.30
2019-06-27T01:33:43.519Z,95634.35
2019-06-27T01:36:09.862Z,95639.28
2019-06-27T01:38:36.192Z,95634.19
2019-06-27T01:41:02.622Z,95635.22
2019-06-27T01:43:28.925Z,95634.22
2019-06-27T01:45:55.273Z,95631.44
2019-06-27T01:48:21.615Z,95625.37
2019-06-27T01:50:48.003Z,95635.91
2019-06-27T01:53:14.406Z,95631.90
2019-06-27T01:55:40.773Z,95632.97
2019-06-27T01:58:07.109Z,95625.46
2019-06-27T02:00:33.453Z,95626.16
2019-06-27T02:02:59.895Z,95623.00
2019-06-27T02:05:26.207Z,95624.95
2019-06-27T02:07:52.547Z,95615.83
2019-06-27T02:10:18.959Z,95622.55
2019-06-27T02:12:45.407Z,95616.31
2019-06-27T02:15:11.745Z,95611.09
2019-06-27T02:17:38.147Z,95614.91
2019-06-27T02:20:04.544Z,95611.00
2019-06-27T02:22:30.766Z,95606.77
2019-06-27T02:24:57.153Z,95606.36
2019-06-27T02:27:23.598Z,95607.48
2019-06-27T02:29:49.882Z,95608.34
2019-06-27T02:34:42.601Z,95606.63
2019-06-27T02:37:08.979Z,95607.09
2019-06-27T02:39:35.343Z,95599.05
2019-06-27T02:42:01.726Z,95600.70
2019-06-27T02:44:28.041Z,95605.89
2019-06-27T02:46:54.450Z,95602.14
2019-06-27T02:49:20.783Z,95598.95
2019-06-27T02:51:47.133Z,95602.44
2019-06-27T02:54:13.542Z,95595.91
2019-06-27T02:56:39.872Z,95597.66
2019-06-27T02:59:06.220Z,95596.86
2019-06-27T03:01:32.577Z,95591.48
2019-06-27T03:03:58.912Z,95598.03
2019-06-27T03:06:28.056Z,95590.14
2019-06-27T03:08:54.433Z,95590.59
2019-06-27T03:11:20.824Z,95595.17
2019-06-27T03:13:47.340Z,95594.22
2019-06-27T03:16:13.622Z,95600.86
2019-06-27T03:18:40.016Z,95595.55
2019-06-27T03:21:06.305Z,95600.66
2019-06-27T03:23:32.733Z,95593.84
2019-06-27T03:25:59.061Z,95594.98
2019-06-27T03:28:25.474Z,95598.75
2019-06-27T03:30:51.803Z,95600.75
2019-06-27T03:33:18.212Z,95604.66
2019-06-27T03:35:44.576Z,95608.69
2019-06-27T03:38:11.100Z,95606.27
2019-06-27T03:40:37.511Z,95611.22
2019-06-27T03:43:03.810Z,95608.59
2019-06-27T03:45:30.168Z,95607.31
2019-06-27T03:47:56.517Z,95609.55
2019-06-27T03:50:22.854Z,95616.74
2019-06-27T03:52:49.264Z,95622.84
2019-06-27T03:55:15.718Z,95614.00
2019-06-27T03:57:45.099Z,95617.56
2019-06-27T04:00:08.461Z,95623.67
2019-06-27T04:02:34.897Z,95620.13
2019-06-27T04:05:01.267Z,95620.64
2019-06-27T04:07:27.662Z,95617.14
2019-06-27T04:09:54.022Z,95618.09
2019-06-27T04:12:20.356Z,95610.84
2019-06-27T04:14:46.712Z,95609.02
2019-06-27T04:17:13.047Z,95614.33
2019-06-27T04:19:39.433Z,95608.72
2019-06-27T04:22:05.784Z,95606.79
2019-06-27T04:24:32.174Z,95603.02
2019-06-27T04:26:58.509Z,95596.59
2019-06-27T04:29:33.381Z,95594.79
2019-06-27T04:31:51.261Z,95590.95
2019-06-27T04:34:19.802Z,95592.30
2019-06-27T04:36:43.948Z,95585.63
2019-06-27T04:39:10.353Z,95590.81
2019-06-27T04:41:36.669Z,95587.21
2019-06-27T04:44:02.991Z,95587.80
2019-06-27T04:46:29.352Z,95591.36
2019-06-27T04:48:55.711Z,95590.09
2019-06-27T04:51:24.472Z,95594.27
2019-06-27T04:53:48.459Z,95587.27
2019-06-27T04:56:14.763Z,95591.14
2019-06-27T04:58:41.092Z,95589.16
2019-06-27T05:01:07.437Z,95594.78
2019-06-27T05:03:33.863Z,95587.99
2019-06-27T05:06:00.180Z,95593.37
2019-06-27T05:08:26.519Z,95592.67
2019-06-27T05:10:52.861Z,95582.66
2019-06-27T05:13:19.201Z,95582.66
2019-06-27T05:15:45.595Z,95585.38
2019-06-27T05:18:11.947Z,95587.74
2019-06-27T05:20:38.278Z,95586.78
2019-06-27T05:23:04.661Z,95588.71
2019-06-27T05:25:31.043Z,95588.71
2019-06-27T05:27:57.467Z,95588.16
2019-06-27T05:30:23.743Z,95586.73
2019-06-27T05:32:50.135Z,95588.63
2019-06-27T05:35:16.492Z,95591.22
2019-06-27T05:37:42.827Z,95584.09
2019-06-27T05:40:09.285Z,95582.11
2019-06-27T05:42:35.576Z,95583.30
2019-06-27T05:47:28.299Z,95561.73
2019-06-27T05:49:54.630Z,95573.59
2019-06-27T05:52:21.004Z,95573.59
2019-06-27T05:54:47.349Z,95570.92
2019-06-27T05:57:13.699Z,95570.92
2019-06-27T05:59:40.100Z,95570.13
2019-06-27T06:02:06.385Z,95569.27
2019-06-27T06:04:32.842Z,95567.08
2019-06-27T06:06:59.198Z,95567.08
2019-06-27T06:09:25.547Z,95550.39
2019-06-27T06:11:51.907Z,95558.30
2019-06-27T06:14:18.266Z,95537.63
2019-06-27T06:16:44.595Z,95547.50
2019-06-27T06:21:37.289Z,95548.94
2019-06-27T06:24:03.650Z,95555.16
2019-06-27T06:26:30.046Z,95549.05
2019-06-27T06:28:56.373Z,95521.78
2019-06-27T06:31:23.473Z,95542.23
2019-06-27T06:33:49.651Z,95531.40
2019-06-27T06:36:15.979Z,95531.40
2019-06-27T06:38:42.312Z,95531.17
2019-06-27T06:41:08.703Z,95518.84
2019-06-27T06:43:35.070Z,95542.93
2019-06-27T06:46:01.419Z,95528.22
2019-06-27T06:48:27.817Z,95529.87
2019-06-27T06:50:54.137Z,95529.77
2019-06-27T06:55:46.847Z,95536.12
2019-06-27T06:58:13.179Z,95529.50
2019-06-27T07:00:39.544Z,95528.92
2019-06-27T07:03:05.869Z,95526.20
2019-06-27T07:05:32.236Z,95522.08
2019-06-27T07:07:58.568Z,95518.97
2019-06-27T07:10:24.927Z,95522.03
2019-06-27T07:12:51.286Z,95517.65
2019-06-27T07:15:17.681Z,95514.34
2019-06-27T07:17:44.025Z,95514.09
2019-06-27T07:20:10.403Z,95503.60
2019-06-27T07:22:36.712Z,95501.84
2019-06-27T07:25:03.063Z,95502.05
2019-06-27T07:29:55.876Z,95495.91
2019-06-27T07:32:22.260Z,95496.87
2019-06-27T07:34:48.556Z,95495.11
2019-06-27T07:37:14.918Z,95491.36
2019-06-27T07:39:41.339Z,95486.44
2019-06-27T07:42:07.707Z,95493.52
2019-06-27T07:44:33.987Z,95486.94
2019-06-27T07:47:00.340Z,95487.48
2019-06-27T07:49:26.668Z,95488.77
2019-06-27T07:51:52.999Z,95486.19
2019-06-27T07:54:19.395Z,95481.41
2019-06-27T07:56:46.485Z,95477.01
2019-06-27T07:59:12.211Z,95474.84
2019-06-27T08:01:38.460Z,95469.18
2019-06-27T08:04:04.930Z,95472.20
2019-06-27T08:06:31.358Z,95466.77
2019-06-27T08:08:57.769Z,95467.16
2019-06-27T08:11:24.054Z,95461.94
2019-06-27T08:13:50.512Z,95465.05
2019-06-27T08:16:16.941Z,95458.83
2019-06-27T08:18:43.265Z,95459.39
2019-06-27T08:21:09.611Z,95455.77
2019-06-27T08:23:41.656Z,95454.22
2019-06-27T08:26:02.351Z,95453.39
2019-06-27T08:28:28.756Z,95449.14
2019-06-27T08:30:55.032Z,95444.23
2019-06-27T08:33:21.402Z,95442.11
2019-06-27T08:35:47.750Z,95438.72
2019-06-27T08:38:14.074Z,95431.07
2019-06-27T08:40:40.514Z,95427.28
2019-06-27T08:43:06.805Z,95428.63
2019-06-27T08:45:33.155Z,95427.39
2019-06-27T08:47:59.460Z,95423.41
2019-06-27T08:50:25.790Z,95421.19
2019-06-27T08:52:52.214Z,95421.07
2019-06-27T08:55:18.579Z,95419.55
2019-06-27T08:57:44.882Z,95421.05
2019-06-27T09:00:11.253Z,95417.87
2019-06-27T09:02:37.551Z,95411.30
2019-06-27T09:05:03.879Z,95412.95
2019-06-27T09:07:30.254Z,95411.04
2019-06-27T09:09:56.609Z,95406.02
2019-06-27T09:12:22.962Z,95403.84
2019-06-27T09:14:49.293Z,95404.88
2019-06-27T09:17:15.642Z,95401.73
2019-06-27T09:19:41.996Z,95401.77
2019-06-27T09:22:08.327Z,95399.86
2019-06-27T09:24:34.680Z,95389.23
2019-06-27T09:27:01.128Z,95382.55
2019-06-27T09:29:27.443Z,95382.94
2019-06-27T09:31:53.784Z,95382.78
2019-06-27T09:34:21.455Z,95379.88
2019-06-27T09:36:46.480Z,95378.33
2019-06-27T09:39:12.863Z,95375.32
2019-06-27T09:41:39.218Z,95372.27
2019-06-27T09:44:05.540Z,95371.19
2019-06-27T09:46:31.912Z,95371.55
2019-06-27T09:48:58.244Z,95367.98
2019-06-27T09:51:24.639Z,95358.52
2019-06-27T09:53:50.981Z,95356.32
2019-06-27T09:56:17.336Z,95357.77
2019-06-27T09:58:43.675Z,95355.34
2019-06-27T10:01:10.025Z,95357.00
2019-06-27T10:03:36.369Z,95349.65
2019-06-27T10:06:02.841Z,95348.41
2019-06-27T10:08:29.141Z,95342.55
2019-06-27T10:10:55.878Z,95341.11
2019-06-27T10:13:21.987Z,95332.66
2019-06-27T10:15:48.346Z,95336.91
2019-06-27T10:18:14.711Z,95332.24
2019-06-27T10:20:41.071Z,95332.02
2019-06-27T10:23:07.433Z,95325.33
2019-06-27T10:25:33.830Z,95326.78
2019-06-27T10:28:00.288Z,95322.31
2019-06-27T10:30:26.572Z,95315.33
2019-06-27T10:32:59.405Z,95309.94
2019-06-27T10:35:19.178Z,95314.45
2019-06-27T10:37:45.637Z,95311.08
2019-06-27T10:40:11.919Z,95309.58
2019-06-27T10:42:38.305Z,95324.80
2019-06-27T10:45:04.648Z,95280.51
2019-06-27T10:47:30.983Z,95296.56
2019-06-27T10:49:57.311Z,95295.42
2019-06-27T10:52:23.763Z,95288.55
2019-06-27T10:54:50.176Z,95285.89
2019-06-27T10:57:16.543Z,95279.23
2019-06-27T10:59:42.900Z,95284.50
2019-06-27T11:02:09.212Z,95273.64
2019-06-27T11:04:35.580Z,95270.94
2019-06-27T11:07:01.982Z,95272.29
2019-06-27T11:09:28.335Z,95266.39
2019-06-27T11:11:54.689Z,95270.33
2019-06-27T11:14:21.139Z,95260.25
2019-06-27T11:16:47.556Z,95253.63
2019-06-27T11:19:13.915Z,95259.31
2019-06-27T11:21:40.306Z,95253.00
2019-06-27T11:24:06.709Z,95252.50
2019-06-27T11:26:33.034Z,95253.75
2019-06-27T11:28:59.488Z,95247.79
2019-06-27T11:31:25.844Z,95266.29
2019-06-27T11:33:52.172Z,95224.45
2019-06-27T11:36:18.524Z,95245.66
2019-06-27T11:38:44.876Z,95235.35
2019-06-27T11:41:11.211Z,95235.98
2019-06-27T11:43:37.657Z,95212.16
2019-06-27T11:46:03.999Z,95231.59
2019-06-27T11:48:30.337Z,95232.52
2019-06-27T11:50:56.716Z,95224.55
2019-06-27T11:53:22.983Z,95219.84
2019-06-27T11:55:49.330Z,95220.16
2019-06-27T11:58:15.662Z,95210.61
2019-06-27T12:00:42.591Z,95213.24
2019-06-27T12:03:08.787Z,95209.88
2019-06-27T12:05:35.207Z,95216.44
2019-06-27T12:08:01.597Z,95200.87
2019-06-27T12:10:27.967Z,95192.63
2019-06-27T12:12:54.317Z,95194.99
2019-06-27T12:15:20.666Z,95186.81
2019-06-27T12:17:47.003Z,95186.81
2019-06-27T12:20:13.402Z,95184.48
2019-06-27T12:22:39.711Z,95177.80
2019-06-27T12:25:06.057Z,95178.84
2019-06-27T12:27:32.415Z,95171.09
2019-06-27T12:29:58.743Z,95178.16
2019-06-27T12:32:25.077Z,95166.36
2019-06-27T12:34:51.446Z,95178.78
2019-06-27T12:37:17.780Z,95145.97
2019-06-27T12:39:44.192Z,95169.27
2019-06-27T12:42:10.550Z,95155.42
2019-06-27T12:44:36.892Z,95155.42
2019-06-27T12:47:03.398Z,95161.42
2019-06-27T12:49:44.838Z,95159.52
2019-06-27T12:51:56.089Z,95152.94
2019-06-27T12:54:22.491Z,95124.05
2019-06-27T12:59:15.160Z,95143.91
2019-06-27T13:01:41.535Z,95144.05
2019-06-27T13:04:22.332Z,95130.88
2019-06-27T13:06:34.246Z,95144.63
2019-06-27T13:09:00.631Z,95135.80
2019-06-27T13:11:27.039Z,95133.16
2019-06-27T13:13:53.397Z,95128.41
2019-06-27T13:16:19.735Z,95124.13
2019-06-27T13:18:46.072Z,95122.51
2019-06-27T13:21:12.469Z,95120.56
2019-06-27T13:23:38.796Z,95105.98
2019-06-27T13:26:05.123Z,95105.88
2019-06-27T13:28:31.531Z,95085.00
2019-06-27T13:33:24.237Z,95091.98
2019-06-27T13:35:50.541Z,95086.44
2019-06-27T13:38:17.042Z,95075.63
2019-06-27T13:40:43.339Z,95075.63
2019-06-27T13:43:09.738Z,95076.52
2019-06-27T13:45:36.087Z,95045.52
2019-06-27T13:48:02.430Z,95071.70
2019-06-27T13:50:28.765Z,95051.61
2019-06-27T13:52:55.111Z,95051.61
2019-06-27T13:55:23.876Z,95065.50
2019-06-27T13:57:47.930Z,95063.33
2019-06-27T14:00:14.340Z,95037.66
2019-06-27T14:02:40.620Z,95037.66
2019-06-27T14:07:33.360Z,95027.97
2019-06-27T14:09:59.965Z,95027.97
2019-06-27T14:12:26.251Z,95054.84
2019-06-27T14:14:59.918Z,95014.77
2019-06-27T14:17:19.017Z,95030.30
2019-06-27T14:19:45.426Z,95025.77
2019-06-27T14:22:15.241Z,94999.86
2019-06-27T14:24:38.168Z,94999.86
2019-06-27T14:27:04.906Z,94999.92
2019-06-27T14:29:30.960Z,94999.92
2019-06-27T14:31:57.299Z,94995.98
2019-06-27T14:34:25.689Z,94981.30
2019-06-27T14:36:54.345Z,94981.30
2019-06-27T14:39:18.369Z,94996.31
2019-06-27T14:41:44.763Z,94996.31
2019-06-27T14:44:11.082Z,94966.80
2019-06-27T14:46:37.685Z,94970.67
2019-06-27T14:49:03.736Z,94964.13
2019-06-27T14:51:30.188Z,94962.75
2019-06-27T14:53:56.522Z,94964.01
2019-06-27T14:56:22.892Z,94963.89
2019-06-27T14:58:49.243Z,94981.25
2019-06-27T15:01:15.581Z,94972.94
2019-06-27T15:03:42.010Z,94973.41
2019-06-27T15:06:12.108Z,94969.35
2019-06-27T15:08:34.797Z,94964.55
2019-06-27T15:11:01.095Z,94956.05
2019-06-27T15:13:27.445Z,94955.81
2019-06-27T15:16:10.343Z,94953.48
2019-06-27T15:18:20.166Z,94950.17
2019-06-27T15:20:46.497Z,94936.94
2019-06-27T15:23:12.809Z,94949.83
2019-06-27T15:25:39.183Z,94948.09
2019-06-27T15:28:05.511Z,94945.57
2019-06-27T15:30:31.846Z,94945.57
2019-06-27T15:32:58.170Z,94946.86
2019-06-27T15:35:24.517Z,94941.88
2019-06-27T15:37:50.873Z,94937.88
2019-06-27T15:40:17.280Z,94967.70
2019-06-27T15:42:43.542Z,94934.21
2019-06-27T15:45:09.918Z,94937.29
2019-06-27T15:50:02.652Z,94923.03
2019-06-27T15:52:28.918Z,94919.16
2019-06-27T15:54:55.257Z,94932.01
2019-06-27T15:57:21.582Z,94910.97
2019-06-27T15:59:47.932Z,94927.22
2019-06-27T16:02:14.265Z,94921.80
2019-06-27T16:04:40.622Z,94920.77
2019-06-27T16:07:07.067Z,94920.77
2019-06-27T16:09:33.410Z,94918.04
2019-06-27T16:11:59.798Z,94918.04
2019-06-27T16:14:26.120Z,94909.20
2019-06-27T16:16:52.466Z,94909.20
2019-06-27T16:19:18.781Z,94921.09
2019-06-27T16:21:45.139Z,94924.48
2019-06-27T16:24:11.463Z,94924.48
2019-06-27T16:26:37.891Z,94922.05
2019-06-27T16:29:04.209Z,94916.69
2019-06-27T16:31:30.665Z,94909.46
2019-06-27T16:33:57.088Z,94917.88
2019-06-27T16:36:26.033Z,94917.88
2019-06-27T16:38:49.760Z,94900.74
2019-06-27T16:41:16.135Z,94917.47
2019-06-27T16:46:08.792Z,94923.31
2019-06-27T16:48:35.140Z,94926.83
2019-06-27T16:51:01.532Z,94925.33
2019-06-27T16:53:27.862Z,94915.92
2019-06-27T16:55:54.229Z,94927.56
2019-06-27T16:58:20.562Z,94922.59
2019-06-27T17:00:46.901Z,94922.75
2019-06-27T17:03:13.319Z,94925.80
2019-06-27T17:05:39.599Z,94925.80
2019-06-27T17:08:05.943Z,94941.27
2019-06-27T17:10:32.313Z,94919.19
2019-06-27T17:12:58.771Z,94925.20
2019-06-27T17:15:25.098Z,94925.20
2019-06-27T17:20:17.755Z,94924.83
2019-06-27T17:22:44.151Z,94931.65
2019-06-27T17:25:10.485Z,94924.37
2019-06-27T17:27:36.833Z,94923.39
2019-06-27T17:30:03.168Z,94926.12
2019-06-27T17:32:29.494Z,94924.05
2019-06-27T17:34:55.839Z,94926.69
2019-06-27T17:37:22.264Z,94929.02
2019-06-27T17:39:48.667Z,94922.10
2019-06-27T17:42:14.902Z,94924.16
2019-06-27T17:44:41.246Z,94932.83
2019-06-27T17:47:10.358Z,94932.83
2019-06-27T17:49:36.696Z,94934.28
2019-06-27T17:52:03.042Z,94930.81
2019-06-27T17:54:29.400Z,94943.53
2019-06-27T17:56:55.786Z,94931.89
2019-06-27T17:59:22.120Z,94928.60
2019-06-27T18:01:48.438Z,94930.15
2019-06-27T18:04:14.765Z,94929.61
2019-06-27T18:06:41.104Z,94943.16
2019-06-27T18:09:07.510Z,94937.38
2019-06-27T18:11:33.887Z,94956.48
2019-06-27T18:14:00.219Z,94958.95
2019-06-27T18:16:26.558Z,94952.03
2019-06-27T18:18:52.911Z,94956.88
2019-06-27T18:21:19.243Z,94954.14
2019-06-27T18:23:45.596Z,94953.99
2019-06-27T18:26:11.944Z,94956.02
2019-06-27T18:28:38.333Z,94947.13
2019-06-27T18:31:04.683Z,94947.13
2019-06-27T18:33:31.097Z,94947.89
2019-06-27T18:35:57.500Z,94959.47
2019-06-27T18:38:23.783Z,94963.97
2019-06-27T18:40:50.160Z,94963.97
2019-06-27T18:43:16.479Z,94974.09
2019-06-27T18:45:42.864Z,94963.71
2019-06-27T18:48:09.208Z,94963.71
2019-06-27T18:50:35.604Z,94977.23
2019-06-27T18:53:01.981Z,94985.91
2019-06-27T18:55:28.324Z,94984.30
2019-06-27T18:57:54.715Z,94991.53
2019-06-27T19:02:47.462Z,95004.04
2019-06-27T19:05:13.773Z,95010.99
2019-06-27T19:07:45.753Z,95010.99
2019-06-27T19:10:06.464Z,95011.67
2019-06-27T19:12:32.802Z,95011.67
2019-06-27T19:14:59.209Z,95014.67
2019-06-27T19:17:26.803Z,95021.75
2019-06-27T19:19:51.919Z,95019.84
2019-06-27T19:22:18.352Z,95018.44
2019-06-27T19:24:44.625Z,95032.03
2019-06-27T19:27:11.023Z,95033.09
2019-06-27T19:29:37.354Z,95033.56
2019-06-27T19:32:03.685Z,95024.07
2019-06-27T19:36:56.364Z,95043.52
2019-06-27T19:39:22.695Z,95034.13
2019-06-27T19:41:49.103Z,95038.24
2019-06-27T19:44:15.373Z,95042.59
2019-06-27T19:46:41.685Z,95044.34
2019-06-27T19:49:08.025Z,95037.89
2019-06-27T19:51:34.387Z,95039.06
2019-06-27T19:54:00.740Z,95038.24
2019-06-27T19:56:27.106Z,95045.64
2019-06-27T19:58:53.392Z,95045.64
2019-06-27T20:01:19.722Z,95038.24
2019-06-27T20:03:46.098Z,95038.24
2019-06-27T20:06:12.452Z,95026.27
2019-06-27T20:11:07.914Z,95025.91
2019-06-27T20:13:34.315Z,95035.30
2019-06-27T20:16:00.611Z,95027.09
2019-06-27T20:18:26.985Z,95029.46
2019-06-27T20:20:53.274Z,95016.79
2019-06-27T20:23:19.687Z,95016.79
2019-06-27T20:25:46.011Z,95035.67
2019-06-27T20:28:12.348Z,95039.44
2019-06-27T20:30:38.744Z,95039.44
2019-06-27T20:33:05.044Z,95038.97
2019-06-27T20:35:31.405Z,95033.80
2019-06-27T20:37:57.836Z,95033.92
2019-06-27T20:40:24.134Z,95028.75
2019-06-27T20:45:16.803Z,95011.77
2019-06-27T20:47:43.139Z,95011.77
2019-06-27T20:50:09.596Z,95023.45
2019-06-27T20:52:37.824Z,95020.41
2019-06-27T20:55:08.613Z,95015.71
2019-06-27T20:57:33.771Z,95015.97
2019-06-27T21:00:00.124Z,95024.75
2019-06-27T21:02:26.437Z,95036.97
2019-06-27T21:07:19.152Z,95042.03
2019-06-27T21:09:45.479Z,95045.55
2019-06-27T21:12:11.843Z,95057.53
2019-06-27T21:14:38.245Z,95063.84
2019-06-27T21:17:04.622Z,95051.08
2019-06-27T21:19:30.959Z,95049.22
2019-06-27T21:21:58.914Z,95053.56
2019-06-27T21:24:23.640Z,95062.39
2019-06-27T21:26:50.021Z,95062.13
2019-06-27T21:29:17.177Z,95062.13
2019-06-27T21:31:42.700Z,95058.84
2019-06-27T21:34:09.049Z,95052.99
2019-06-27T21:36:35.445Z,95055.22
2019-06-27T21:39:07.704Z,95055.22
2019-06-27T21:41:28.246Z,95055.93
2019-06-27T21:43:54.588Z,95072.72
2019-06-27T21:46:20.922Z,95064.00
2019-06-27T21:48:47.324Z,95052.64
2019-06-27T21:51:13.641Z,95058.16
2019-06-27T21:53:39.984Z,95066.84
2019-06-27T21:56:06.308Z,95062.28
2019-06-27T21:58:32.672Z,95059.09
2019-06-27T22:00:59.011Z,95057.80
2019-06-27T22:03:25.367Z,95059.70
2019-06-27T22:05:51.749Z,95070.25
2019-06-27T22:08:18.102Z,95074.27
2019-06-27T22:10:44.432Z,95073.55
2019-06-27T22:13:10.909Z,95064.66
2019-06-27T22:15:37.242Z,95063.95
2019-06-27T22:18:03.597Z,95067.09
2019-06-27T22:20:29.915Z,95069.11
2019-06-27T22:22:56.277Z,95065.59
2019-06-27T22:25:38.849Z,95051.55
2019-06-27T22:27:49.017Z,95047.63
2019-06-27T22:30:15.392Z,95046.69
2019-06-27T22:32:41.704Z,95045.44
2019-06-27T22:37:34.407Z,95033.92
2019-06-27T22:40:00.899Z,95038.05
2019-06-27T22:42:27.231Z,95034.04
2019-06-27T22:44:53.573Z,95028.27
2019-06-27T22:47:20.016Z,95020.45
2019-06-27T22:49:46.391Z,95015.39
2019-06-27T22:52:12.706Z,94987.72
2019-06-27T22:54:39.032Z,94987.72
2019-06-27T22:57:05.366Z,94999.91
2019-06-27T22:59:31.751Z,95005.33
2019-06-27T23:01:58.110Z,94995.56
2019-06-27T23:04:24.486Z,94994.63
2019-06-27T23:06:50.920Z,94990.05
2019-06-27T23:11:43.588Z,94975.84
2019-06-27T23:14:09.933Z,94970.21
2019-06-27T23:16:36.313Z,94967.52
2019-06-27T23:19:02.751Z,94959.88
2019-06-27T23:21:29.106Z,94957.20
2019-06-27T23:23:55.445Z,94962.14
2019-06-27T23:26:21.796Z,94958.03
2019-06-27T23:28:48.175Z,94957.20
2019-06-27T23:31:14.608Z,94957.56
2019-06-27T23:33:40.898Z,94949.46
2019-06-27T23:36:07.275Z,94950.08
2019-06-27T23:38:33.630Z,94943.20
2019-06-27T23:41:00.001Z,94931.65
2019-06-27T23:45:52.741Z,94928.12
2019-06-27T23:48:19.124Z,94914.45
2019-06-27T23:50:45.458Z,94914.45
2019-06-27T23:53:11.792Z,94927.00
2019-06-27T23:55:38.166Z,94898.20
2019-06-27T23:58:04.584Z,94913.11
